Time;durP1;ratioP1;P1;durP2;ratioP2;P2;SDS_P1;SDS_P2;PMS_P1;PMS_P2;Temp;Humidity;BMP_temperature;BMP_pressure;BME280_temperature;BME280_humidity;BME280_pressure;Samples;Min_cycle;Max_cycle;Signal;HPM_P1;HPM_P2
2023/05/12 00:02:08;;;;;;;1.08;1.08;;;;;;;8.78;100.00;95397.91;5066977;28;20028;-67
2023/05/12 00:04:35;;;;;;;0.93;0.93;;;;;;;8.79;100.00;95396.94;5051019;28;20549;-67
2023/05/12 00:07:00;;;;;;;0.90;0.90;;;;;;;8.82;100.00;95394.03;5052192;28;20021;-68
2023/05/12 00:09:26;;;;;;;1.42;1.10;;;;;;;8.82;100.00;95391.41;5050945;28;20403;-68
2023/05/12 00:11:51;;;;;;;2.40;0.98;;;;;;;8.77;100.00;95388.38;5050118;28;20017;-68
2023/05/12 00:14:18;;;;;;;1.10;1.10;;;;;;;8.78;100.00;95386.56;5050176;28;20480;-68
2023/05/12 00:16:44;;;;;;;1.02;1.02;;;;;;;8.76;100.00;95383.25;5052351;28;20095;-68
2023/05/12 00:19:09;;;;;;;1.55;1.48;;;;;;;8.75;100.00;95382.44;5051939;28;20017;-68
2023/05/12 00:21:35;;;;;;;2.78;1.20;;;;;;;8.73;100.00;95377.31;5045492;28;20030;-68
2023/05/12 00:24:00;;;;;;;2.00;1.20;;;;;;;8.72;100.00;95369.56;5056065;28;20400;-68
2023/05/12 00:26:25;;;;;;;1.10;1.10;;;;;;;8.73;100.00;95373.84;5055021;28;20192;-68
2023/05/12 00:28:51;;;;;;;2.08;1.10;;;;;;;8.73;100.00;95372.06;5055423;28;20013;-68
2023/05/12 00:31:17;;;;;;;1.42;1.33;;;;;;;8.74;100.00;95370.28;5054218;28;20047;-68
2023/05/12 00:33:42;;;;;;;1.35;1.13;;;;;;;8.75;100.00;95358.81;5049640;28;20022;-68
2023/05/12 00:36:08;;;;;;;1.20;1.10;;;;;;;8.75;100.00;95361.44;5047708;28;20103;-68
2023/05/12 00:38:33;;;;;;;1.30;1.20;;;;;;;8.74;100.00;95362.41;5053354;28;20409;-68
2023/05/12 00:41:00;;;;;;;1.20;1.20;;;;;;;8.72;100.00;95356.44;5054026;28;20060;-68
2023/05/12 00:43:25;;;;;;;1.15;1.02;;;;;;;8.72;100.00;95362.53;5053286;28;20033;-68
2023/05/12 00:45:51;;;;;;;1.15;1.15;;;;;;;8.81;100.00;95355.63;5053449;28;20025;-68
2023/05/12 00:48:17;;;;;;;1.35;1.25;;;;;;;8.82;100.00;95354.66;5055114;28;20021;-68
2023/05/12 00:50:43;;;;;;;1.70;1.38;;;;;;;8.79;100.00;95349.69;5054346;28;20124;-68
2023/05/12 00:53:11;;;;;;;1.20;1.20;;;;;;;8.81;100.00;95354.78;5055222;28;20044;-68
2023/05/12 00:55:36;;;;;;;1.15;1.15;;;;;;;8.84;100.00;95357.13;5054898;28;20021;-68
2023/05/12 00:58:02;;;;;;;1.25;1.23;;;;;;;8.83;100.00;95351.06;5054835;28;20028;-68
2023/05/12 01:00:28;;;;;;;1.35;1.23;;;;;;;8.88;100.00;95348.03;5069956;28;20496;-68
2023/05/12 01:02:57;;;;;;;1.58;1.30;;;;;;;8.91;100.00;95350.38;5054768;28;20023;-68
2023/05/12 01:05:26;;;;;;;1.40;1.40;;;;;;;8.88;100.00;95351.47;5054803;28;20052;-68
2023/05/12 01:07:52;;;;;;;1.73;1.20;;;;;;;8.88;100.00;95358.53;5053105;28;20021;-68
2023/05/12 01:10:19;;;;;;;1.30;1.30;;;;;;;8.89;100.00;95347.88;5047393;28;20016;-68
2023/05/12 01:12:44;;;;;;;3.88;1.58;;;;;;;8.85;100.00;95345.69;5049938;28;20025;-68
2023/05/12 01:15:11;;;;;;;2.45;1.40;;;;;;;8.83;100.00;95348.44;5056075;28;20184;-68
2023/05/12 01:17:40;;;;;;;1.20;1.20;;;;;;;8.82;100.00;95349.41;5056108;28;20037;-68
2023/05/12 01:20:07;;;;;;;1.42;1.33;;;;;;;8.84;100.00;95351.88;5054874;28;20024;-68
2023/05/12 01:22:34;;;;;;;1.60;1.50;;;;;;;8.87;100.00;95346.38;5054433;28;20531;-68
2023/05/12 01:25:07;;;;;;;1.40;1.40;;;;;;;8.88;100.00;95351.47;5055969;28;20036;-68
2023/05/12 01:27:33;;;;;;;1.42;1.33;;;;;;;8.88;100.00;95346.22;5055961;28;20052;-68
2023/05/12 01:30:03;;;;;;;1.60;1.50;;;;;;;8.87;100.00;95339.31;5055735;28;20021;-68
2023/05/12 01:32:29;;;;;;;3.40;1.70;;;;;;;8.91;100.00;95346.91;5055333;28;20100;-68
2023/05/12 01:34:54;;;;;;;1.63;1.30;;;;;;;8.93;100.00;95351.06;5054524;28;20461;-68
2023/05/12 01:37:20;;;;;;;1.40;1.40;;;;;;;8.94;100.00;95336.13;5054501;28;20021;-68
2023/05/12 01:39:45;;;;;;;2.55;1.20;;;;;;;8.93;100.00;95343.19;5055520;28;20589;-67
2023/05/12 01:42:11;;;;;;;1.55;1.30;;;;;;;8.92;100.00;95341.53;5054916;28;20491;-68
2023/05/12 01:44:36;;;;;;;1.65;1.50;;;;;;;8.93;100.00;95337.06;5055654;28;20040;-68
2023/05/12 01:47:02;;;;;;;1.13;1.13;;;;;;;8.95;100.00;95343.03;5046241;28;20108;-68
2023/05/12 01:49:27;;;;;;;1.30;1.30;;;;;;;8.99;100.00;95336.53;5054804;28;20389;-68
2023/05/12 01:51:52;;;;;;;1.30;1.30;;;;;;;8.97;100.00;95338.47;5050943;28;20409;-68
2023/05/12 01:54:18;;;;;;;2.03;1.55;;;;;;;8.96;100.00;95339.44;5053232;28;20025;-68
2023/05/12 01:56:44;;;;;;;1.40;1.40;;;;;;;8.92;100.00;95335.44;5053365;28;20021;-68
2023/05/12 01:59:09;;;;;;;2.67;1.38;;;;;;;8.95;100.00;95348.28;5053616;28;20036;-68
2023/05/12 02:01:35;;;;;;;1.40;1.30;;;;;;;8.93;100.00;95337.06;5050429;28;20021;-68
2023/05/12 02:04:02;;;;;;;1.58;1.50;;;;;;;8.92;100.00;95335.44;5046831;28;20085;-68
2023/05/12 02:06:28;;;;;;;1.45;1.42;;;;;;;8.87;100.00;95335.88;5053984;28;20067;-68
2023/05/12 02:08:53;;;;;;;1.63;1.50;;;;;;;8.86;100.00;95327.16;5052599;28;20017;-68
2023/05/12 02:11:19;;;;;;;1.30;1.20;;;;;;;8.89;100.00;95326.88;5049623;28;20393;-68
2023/05/12 02:13:45;;;;;;;4.45;1.50;;;;;;;8.95;100.00;95330.72;5059487;28;20045;-68
2023/05/12 02:16:11;;;;;;;2.10;1.55;;;;;;;8.96;100.00;95337.63;5049847;28;20024;-68
2023/05/12 02:18:37;;;;;;;1.40;1.30;;;;;;;8.95;100.00;95332.50;5049905;28;20420;-68
2023/05/12 02:21:03;;;;;;;2.72;2.58;;;;;;;8.93;100.00;95330.03;5054581;28;20560;-68
2023/05/12 02:23:28;;;;;;;2.22;2.13;;;;;;;8.94;100.00;95328.22;5053867;28;20088;-68
2023/05/12 02:25:53;;;;;;;2.08;1.98;;;;;;;8.97;100.00;95327.97;5067533;28;20025;-68
2023/05/12 02:28:19;;;;;;;1.70;1.60;;;;;;;8.97;100.00;95323.53;5052924;28;20031;-68
2023/05/12 02:30:47;;;;;;;1.67;1.58;;;;;;;8.96;100.00;95327.13;5053201;28;20025;-68
2023/05/12 02:33:16;;;;;;;1.73;1.63;;;;;;;8.94;100.00;95321.19;5046241;28;20381;-68
2023/05/12 02:35:43;;;;;;;1.70;1.60;;;;;;;8.97;100.00;95323.53;5050340;28;20025;-68
2023/05/12 02:38:09;;;;;;;1.25;1.25;;;;;;;8.99;100.00;95326.84;5046686;28;20052;-68
2023/05/12 02:40:34;;;;;;;1.50;1.40;;;;;;;8.96;100.00;95321.06;5048362;28;20060;-68
2023/05/12 02:43:00;;;;;;;5.65;1.98;;;;;;;8.94;100.00;95317.72;5059810;28;20067;-68
2023/05/12 02:45:25;;;;;;;2.70;1.60;;;;;;;8.97;100.00;95320.09;5052294;28;20017;-68
2023/05/12 02:47:51;;;;;;;1.50;1.40;;;;;;;8.99;100.00;95315.53;5052952;28;20056;-68
2023/05/12 02:50:17;;;;;;;3.50;1.48;;;;;;;8.96;100.00;95315.81;5049720;28;20025;-68
2023/05/12 02:52:42;;;;;;;1.55;1.45;;;;;;;8.96;100.00;95311.38;5046695;28;20025;-68
2023/05/12 02:55:08;;;;;;;3.60;1.50;;;;;;;8.97;100.00;95320.09;5053002;28;20025;-68
2023/05/12 02:57:33;;;;;;;1.25;1.25;;;;;;;8.96;100.00;95310.56;5051967;28;20056;-68
2023/05/12 03:00:00;;;;;;;1.67;1.30;;;;;;;8.95;100.00;95309.72;5068966;28;20052;-68
2023/05/12 03:02:26;;;;;;;1.60;1.50;;;;;;;8.96;100.00;95307.94;5053240;28;20028;-68
2023/05/12 03:04:51;;;;;;;2.47;1.60;;;;;;;8.92;100.00;95310.00;5052850;28;20054;-68
2023/05/12 03:07:17;;;;;;;1.40;1.40;;;;;;;8.93;100.00;95298.53;5053466;28;20040;-68
2023/05/12 03:09:42;;;;;;;2.00;1.90;;;;;;;8.89;100.00;95297.97;5054360;28;20504;-68
2023/05/12 03:12:08;;;;;;;5.90;3.33;;;;;;;8.85;100.00;95296.63;5054225;28;20537;-68
2023/05/12 03:14:33;;;;;;;3.63;3.33;;;;;;;8.84;100.00;95294.97;5054912;28;20075;-68
2023/05/12 03:16:59;;;;;;;2.83;2.58;;;;;;;8.84;100.00;95294.13;5052838;28;20035;-68
2023/05/12 03:19:24;;;;;;;2.60;1.95;;;;;;;8.81;100.00;95291.78;5054285;28;20091;-68
2023/05/12 03:21:50;;;;;;;2.45;1.70;;;;;;;8.80;100.00;95285.72;5054322;28;20107;-68
2023/05/12 03:24:15;;;;;;;4.20;1.45;;;;;;;8.78;100.00;95290.28;5054048;28;20025;-68
2023/05/12 03:26:41;;;;;;;2.03;1.90;;;;;;;8.80;100.00;95284.88;5054002;28;20032;-68
2023/05/12 03:29:06;;;;;;;1.50;1.40;;;;;;;8.81;100.00;95287.38;5052967;28;20033;-68
2023/05/12 03:31:32;;;;;;;2.17;1.50;;;;;;;8.84;100.00;95281.84;5052334;28;20469;-68
2023/05/12 03:33:57;;;;;;;1.98;1.60;;;;;;;8.83;100.00;95280.19;5054536;28;20033;-68
2023/05/12 03:36:23;;;;;;;1.88;1.60;;;;;;;8.83;100.00;95284.59;5052751;28;20058;-68
2023/05/12 03:38:48;;;;;;;2.00;1.90;;;;;;;8.79;100.00;95277.97;5049124;28;20033;-68
2023/05/12 03:41:15;;;;;;;2.03;1.80;;;;;;;8.80;100.00;95277.84;5069945;28;20025;-68
2023/05/12 03:43:41;;;;;;;1.70;1.63;;;;;;;8.83;100.00;95282.81;5053739;28;20028;-68
2023/05/12 03:46:06;;;;;;;1.80;1.70;;;;;;;8.85;100.00;95291.38;5054219;28;20070;-68
2023/05/12 03:48:32;;;;;;;2.22;1.80;;;;;;;8.85;100.00;95290.56;5052208;28;20116;-68
2023/05/12 03:50:57;;;;;;;3.00;1.70;;;;;;;8.87;100.00;95281.56;5052467;28;20035;-68
2023/05/12 03:53:23;;;;;;;2.60;1.70;;;;;;;8.88;100.00;95285.84;5052996;28;20059;-68
2023/05/12 03:55:48;;;;;;;1.70;1.60;;;;;;;8.82;100.00;95285.56;5055135;28;20400;-69
2023/05/12 03:58:14;;;;;;;2.00;1.90;;;;;;;8.79;100.00;95281.44;5049425;28;20351;-68
2023/05/12 04:00:39;;;;;;;2.10;1.90;;;;;;;8.81;100.00;95287.38;5057027;28;20031;-67
2023/05/12 04:03:05;;;;;;;2.35;2.20;;;;;;;8.82;100.00;95278.53;5056643;28;20024;-68
2023/05/12 04:05:30;;;;;;;2.15;2.05;;;;;;;8.82;100.00;95283.78;5057756;28;20056;-68
2023/05/12 04:07:56;;;;;;;2.50;2.30;;;;;;;8.81;100.00;95276.88;5057997;28;20487;-67
2023/05/12 04:10:21;;;;;;;3.20;2.25;;;;;;;8.83;100.00;95279.34;5057132;28;20025;-68
2023/05/12 04:12:47;;;;;;;2.08;1.90;;;;;;;8.81;100.00;95279.50;5057424;28;20102;-67
2023/05/12 04:15:13;;;;;;;1.65;1.55;;;;;;;8.82;100.00;95283.78;5057798;28;20500;-67
2023/05/12 04:17:39;;;;;;;2.50;1.95;;;;;;;8.81;100.00;95287.38;5057359;28;20036;-69
2023/05/12 04:20:06;;;;;;;2.58;2.30;;;;;;;8.82;100.00;95283.78;5057477;28;20029;-68
2023/05/12 04:22:31;;;;;;;1.98;1.88;;;;;;;8.81;100.00;95276.03;5057308;28;20505;-68
2023/05/12 04:24:57;;;;;;;3.22;1.90;;;;;;;8.85;100.00;95282.69;5057240;28;20059;-68
2023/05/12 04:27:22;;;;;;;2.00;1.90;;;;;;;8.91;100.00;95284.72;5055406;28;20037;-68
2023/05/12 04:29:47;;;;;;;2.03;1.70;;;;;;;8.94;100.00;95287.06;5057434;28;20104;-68
2023/05/12 04:32:13;;;;;;;3.72;2.22;;;;;;;8.91;100.00;95291.75;5055725;28;20033;-69
2023/05/12 04:34:38;;;;;;;4.38;1.70;;;;;;;8.88;100.00;95290.28;5056547;28;20087;-68
2023/05/12 04:37:04;;;;;;;2.72;2.30;;;;;;;8.91;100.00;95292.59;5055076;28;20087;-69
2023/05/12 04:39:29;;;;;;;2.20;2.10;;;;;;;8.95;100.00;95291.34;5054564;28;20110;-68
2023/05/12 04:41:55;;;;;;;2.53;2.30;;;;;;;8.96;100.00;95295.63;5056786;28;20033;-68
2023/05/12 04:44:21;;;;;;;2.85;2.75;;;;;;;8.95;100.00;95293.97;5057045;28;20028;-68
2023/05/12 04:46:46;;;;;;;3.70;3.40;;;;;;;8.94;100.00;95299.34;5055065;28;20052;-68
2023/05/12 04:49:12;;;;;;;4.50;4.10;;;;;;;8.96;100.00;95302.69;5055352;28;20032;-68
2023/05/12 04:51:41;;;;;;;4.30;3.90;;;;;;;9.03;100.00;95309.03;5036893;28;20021;-67
2023/05/12 04:54:09;;;;;;;5.88;3.65;;;;;;;9.08;100.00;95306.78;5056657;28;20029;-68
2023/05/12 04:56:34;;;;;;;8.27;4.03;;;;;;;9.14;100.00;95306.22;5056615;28;20036;-69
2023/05/12 04:59:00;;;;;;;4.93;3.70;;;;;;;9.12;100.00;95304.72;5055472;28;20037;-68
2023/05/12 05:01:25;;;;;;;3.65;3.30;;;;;;;9.09;100.00;95315.50;5049349;28;20293;-68
2023/05/12 05:03:51;;;;;;;3.88;3.50;;;;;;;9.10;100.00;95311.91;5049817;28;20037;-68
2023/05/12 05:06:16;;;;;;;4.93;3.55;;;;;;;9.09;100.00;95316.31;5055118;28;20529;-68
2023/05/12 05:08:42;;;;;;;3.55;3.30;;;;;;;9.05;100.00;95314.97;5056151;28;20009;-68
2023/05/12 05:11:07;;;;;;;3.97;3.65;;;;;;;9.01;100.00;95313.59;5055177;28;20111;-68
2023/05/12 05:13:32;;;;;;;4.05;3.25;;;;;;;9.06;100.00;95318.41;5057008;28;20029;-68
2023/05/12 05:15:58;;;;;;;3.25;2.88;;;;;;;9.11;100.00;95319.63;5056191;28;20031;-68
2023/05/12 05:18:23;;;;;;;3.40;3.17;;;;;;;9.16;100.00;95320.03;5056721;28;20468;-68
2023/05/12 05:20:49;;;;;;;3.75;3.47;;;;;;;9.11;100.00;95322.25;5056221;28;20394;-68
2023/05/12 05:23:14;;;;;;;7.30;3.20;;;;;;;9.13;100.00;95320.31;5056174;28;20394;-68
2023/05/12 05:25:39;;;;;;;3.83;3.53;;;;;;;9.15;100.00;95326.25;5056389;28;20484;-69
2023/05/12 05:28:05;;;;;;;6.65;3.50;;;;;;;9.13;100.00;95327.38;5056168;28;20029;-69
2023/05/12 05:30:31;;;;;;;3.80;3.47;;;;;;;9.13;100.00;95322.94;5055079;28;20070;-68
2023/05/12 05:32:56;;;;;;;4.82;4.05;;;;;;;9.16;100.00;95324.47;5055742;28;20056;-68
2023/05/12 05:35:21;;;;;;;3.22;3.00;;;;;;;9.17;100.00;95323.50;5055798;28;20025;-69
2023/05/12 05:37:47;;;;;;;4.20;3.70;;;;;;;9.16;100.00;95332.34;5054717;28;20036;-68
2023/05/12 05:40:12;;;;;;;3.70;3.50;;;;;;;9.22;100.00;95336.22;5055614;28;20098;-68
2023/05/12 05:42:38;;;;;;;3.78;3.58;;;;;;;9.14;100.00;95327.22;5056114;28;20033;-68
2023/05/12 05:45:03;;;;;;;3.80;3.60;;;;;;;9.14;100.00;95332.47;5051821;28;20027;-68
2023/05/12 05:47:30;;;;;;;3.40;3.20;;;;;;;9.12;100.00;95337.06;5051797;28;20039;-68
2023/05/12 05:49:56;;;;;;;4.43;3.20;;;;;;;9.13;100.00;95341.34;5047336;28;20017;-68
2023/05/12 05:52:23;;;;;;;3.42;3.22;;;;;;;9.16;100.00;95341.03;5057006;28;20021;-67
2023/05/12 05:54:48;;;;;;;3.40;3.20;;;;;;;9.15;100.00;95341.19;5055589;28;20074;-68
2023/05/12 05:57:14;;;;;;;3.13;2.90;;;;;;;9.15;100.00;95338.56;5054221;28;20055;-69
2023/05/12 05:59:39;;;;;;;3.90;3.60;;;;;;;9.12;100.00;95338.88;5055536;28;20489;-67
2023/05/12 06:02:05;;;;;;;3.67;3.47;;;;;;;9.09;100.00;95337.34;5054252;28;20397;-69
2023/05/12 06:04:31;;;;;;;4.32;3.42;;;;;;;9.15;100.00;95343.81;5047366;28;20025;-67
2023/05/12 06:06:56;;;;;;;4.82;3.38;;;;;;;9.22;100.00;95344.09;5062903;28;20031;-70
2023/05/12 06:09:22;;;;;;;3.53;3.30;;;;;;;9.29;100.00;95342.53;5055101;28;20473;-69
2023/05/12 06:11:47;;;;;;;6.60;3.28;;;;;;;9.30;100.00;95345.03;5048035;28;20354;-69
2023/05/12 06:14:13;;;;;;;3.88;3.63;;;;;;;9.31;100.00;95337.97;5040904;28;20049;-68
2023/05/12 06:16:38;;;;;;;5.00;3.50;;;;;;;9.39;100.00;95340.69;5052370;28;20128;-68
2023/05/12 06:19:03;;;;;;;3.60;3.30;;;;;;;9.55;100.00;95339.28;5054014;28;20064;-69
2023/05/12 06:21:29;;;;;;;3.42;3.05;;;;;;;9.62;100.00;95332.50;5053707;28;20016;-68
2023/05/12 06:23:55;;;;;;;3.70;3.40;;;;;;;9.66;100.00;95333.84;5054371;28;20527;-69
2023/05/12 06:26:21;;;;;;;3.50;3.30;;;;;;;9.69;100.00;95335.34;5053607;28;20381;-69
2023/05/12 06:28:46;;;;;;;3.30;3.00;;;;;;;9.86;100.00;95344.28;5048496;28;20028;-69
2023/05/12 06:31:12;;;;;;;2.90;2.80;;;;;;;9.95;100.00;95342.59;5053804;28;20043;-69
2023/05/12 06:33:37;;;;;;;3.20;3.00;;;;;;;10.08;100.00;95342.22;5053670;28;20483;-69
2023/05/12 06:36:03;;;;;;;3.42;2.95;;;;;;;10.13;100.00;95340.78;5054796;28;20043;-69
2023/05/12 06:38:28;;;;;;;3.58;2.80;;;;;;;10.16;100.00;95335.22;5045709;28;20035;-69
2023/05/12 06:40:54;;;;;;;3.28;2.85;;;;;;;10.23;100.00;95338.09;5051292;28;20026;-69
2023/05/12 06:43:19;;;;;;;2.67;2.47;;;;;;;10.43;100.00;95335.38;5053416;28;21301;-69
2023/05/12 06:45:45;;;;;;;4.32;4.03;;;;;;;10.51;100.00;95337.25;5057847;28;20025;-68
2023/05/12 06:48:10;;;;;;;6.53;3.08;;;;;;;10.61;100.00;95343.28;5038164;28;20052;-69
2023/05/12 06:50:36;;;;;;;3.10;2.90;;;;;;;10.66;100.00;95345.44;5054826;28;20029;-69
2023/05/12 06:53:02;;;;;;;3.28;2.97;;;;;;;10.66;100.00;95345.44;5059552;28;20021;-69
2023/05/12 06:55:27;;;;;;;3.75;3.42;;;;;;;10.78;100.00;95340.78;5055245;28;20111;-68
2023/05/12 06:57:54;;;;;;;2.80;2.60;;;;;;;10.82;100.00;95340.34;5051737;28;20026;-69
2023/05/12 07:00:23;;;;;;;2.45;2.35;;;;;;;10.64;100.00;95347.41;5049084;28;20017;-69
2023/05/12 07:02:49;;;;;;;5.68;3.10;;;;;;;10.56;100.00;95341.09;5047371;28;20401;-69
2023/05/12 07:05:14;;;;;;;7.05;2.53;;;;;;;10.59;100.00;95334.69;5054139;28;20100;-69
2023/05/12 07:07:40;;;;;;;3.60;3.15;;;;;;;10.54;100.00;95339.59;5053222;28;20027;-69
2023/05/12 07:10:06;;;;;;;6.22;4.38;;;;;;;10.58;100.00;95340.94;5050767;28;20029;-68
2023/05/12 07:12:32;;;;;;;4.15;2.90;;;;;;;10.64;100.00;95337.72;5054282;28;20021;-69
2023/05/12 07:14:58;;;;;;;3.03;2.72;;;;;;;10.71;100.00;95336.13;5052464;28;20111;-68
2023/05/12 07:17:23;;;;;;;2.50;2.30;;;;;;;10.71;100.00;95343.19;5052033;28;20021;-69
2023/05/12 07:19:49;;;;;;;5.43;2.70;;;;;;;10.83;100.00;95341.97;5054048;28;20354;-68
2023/05/12 07:22:15;;;;;;;3.08;2.50;;;;;;;10.94;100.00;95340.91;5042038;28;20033;-69
2023/05/12 07:24:40;;;;;;;2.55;2.45;;;;;;;10.96;100.00;95343.41;5049803;28;20021;-69
2023/05/12 07:27:07;;;;;;;3.38;2.70;;;;;;;11.09;100.00;95337.75;5050481;28;20499;-68
2023/05/12 07:29:33;;;;;;;2.60;2.40;;;;;;;11.06;100.00;95338.06;5056503;28;20470;-69
2023/05/12 07:31:58;;;;;;;2.90;2.70;;;;;;;11.05;100.00;95334.56;5055973;28;20039;-68
2023/05/12 07:34:24;;;;;;;4.28;2.63;;;;;;;11.11;100.00;95347.13;5070370;28;20135;-68
2023/05/12 07:36:50;;;;;;;4.57;2.45;;;;;;;11.18;100.00;95339.44;5057615;28;20029;-69
2023/05/12 07:39:18;;;;;;;2.83;2.72;;;;;;;11.32;100.00;95335.41;5058981;28;20129;-68
2023/05/12 07:41:43;;;;;;;2.67;2.40;;;;;;;11.43;100.00;95332.53;5061546;28;20021;-68
2023/05/12 07:44:09;;;;;;;2.53;2.42;;;;;;;11.65;100.00;95340.88;5052673;28;20029;-69
2023/05/12 07:46:35;;;;;;;2.60;2.42;;;;;;;11.80;100.00;95338.47;5055694;28;20123;-68
2023/05/12 07:49:01;;;;;;;1.90;1.80;;;;;;;11.98;100.00;95341.00;5057620;28;20021;-69
2023/05/12 07:51:26;;;;;;;2.45;2.35;;;;;;;12.14;100.00;95339.44;5050427;28;20029;-69
2023/05/12 07:53:54;;;;;;;11.82;8.88;;;;;;;12.10;96.99;95338.94;5055236;28;20051;-68
2023/05/12 07:56:20;;;;;;;6.18;5.68;;;;;;;12.21;98.35;95334.38;5057289;28;20025;-68
2023/05/12 07:58:46;;;;;;;3.33;2.92;;;;;;;12.38;97.80;95333.41;5056216;28;20021;-69
2023/05/12 08:01:11;;;;;;;2.17;2.00;;;;;;;12.55;96.19;95325.50;5060990;28;20024;-69
2023/05/12 08:03:37;;;;;;;4.43;2.58;;;;;;;12.60;94.95;95334.59;5056845;28;20043;-69
2023/05/12 08:06:04;;;;;;;2.47;2.33;;;;;;;12.69;95.33;95322.22;5067300;28;20029;-69
2023/05/12 08:08:30;;;;;;;2.20;2.05;;;;;;;12.81;93.00;95321.88;5057013;28;20017;-69
2023/05/12 08:10:55;;;;;;;2.30;2.10;;;;;;;12.84;94.43;95318.94;5056558;28;20275;-69
2023/05/12 08:13:21;;;;;;;2.40;2.20;;;;;;;12.87;94.06;95318.59;5057406;28;20020;-68
2023/05/12 08:15:48;;;;;;;2.53;2.30;;;;;;;12.81;94.52;95316.59;5064903;28;20031;-69
2023/05/12 08:18:14;;;;;;;2.20;2.05;;;;;;;12.82;91.98;95310.31;5056811;28;20029;-69
2023/05/12 08:20:40;;;;;;;2.38;2.17;;;;;;;12.82;92.10;95311.16;5056680;28;20443;-68
2023/05/12 08:23:06;;;;;;;2.92;2.63;;;;;;;12.86;92.69;95311.69;5064210;28;20049;-68
2023/05/12 08:25:33;;;;;;;2.95;2.65;;;;;;;12.89;91.80;95312.16;5055353;28;20017;-68
2023/05/12 08:27:59;;;;;;;2.50;2.30;;;;;;;12.88;92.02;95310.50;5053856;28;20029;-68
2023/05/12 08:30:25;;;;;;;2.70;2.30;;;;;;;12.88;89.97;95314.97;5054612;28;20039;-69
2023/05/12 08:32:50;;;;;;;2.72;2.50;;;;;;;12.99;89.85;95311.16;5058132;28;20024;-68
2023/05/12 08:35:16;;;;;;;2.03;1.92;;;;;;;13.08;90.12;95317.28;5064412;28;20033;-69
2023/05/12 08:37:41;;;;;;;2.35;2.10;;;;;;;12.98;90.40;95318.25;5057648;28;20025;-69
2023/05/12 08:40:16;;;;;;;2.92;2.13;;;;;;;12.95;90.54;95310.66;5058275;28;20398;-68
2023/05/12 08:42:43;;;;;;;2.60;2.40;;;;;;;13.01;90.13;95309.19;5054413;28;20021;-69
2023/05/12 08:45:10;;;;;;;3.45;2.47;;;;;;;13.11;89.01;95309.81;5055994;28;20272;-69
2023/05/12 08:47:37;;;;;;;7.15;6.10;;;;;;;13.07;87.54;95311.16;5064184;28;20591;-69
2023/05/12 08:50:03;;;;;;;2.58;2.38;;;;;;;13.20;87.25;95310.63;5068753;28;20241;-68
2023/05/12 08:52:31;;;;;;;2.40;2.20;;;;;;;13.35;87.40;95307.31;5060145;28;20025;-68
2023/05/12 08:54:57;;;;;;;5.93;5.32;;;;;;;13.30;85.18;95310.47;5064710;28;20029;-68
2023/05/12 08:57:24;;;;;;;3.22;2.92;;;;;;;13.52;86.69;95313.41;5063743;28;20027;-68
2023/05/12 08:59:53;;;;;;;5.75;5.22;;;;;;;13.53;83.67;95307.97;5055033;28;20048;-68
2023/05/12 09:02:21;;;;;;;3.75;3.45;;;;;;;13.53;84.67;95307.13;5055404;28;20541;-69
2023/05/12 09:04:47;;;;;;;4.00;3.03;;;;;;;13.58;83.63;95299.50;5054735;28;20021;-68
2023/05/12 09:07:14;;;;;;;2.78;2.05;;;;;;;13.89;82.98;95299.56;5053677;28;20055;-69
2023/05/12 09:09:43;;;;;;;3.80;3.10;;;;;;;14.07;81.91;95300.31;5072454;28;20052;-69
2023/05/12 09:12:12;;;;;;;4.72;4.00;;;;;;;13.84;81.89;95309.03;5053418;28;20029;-69
2023/05/12 09:14:39;;;;;;;2.08;1.90;;;;;;;13.85;80.65;95294.81;5050354;28;20090;-69
2023/05/12 09:17:06;;;;;;;4.43;3.15;;;;;;;13.73;82.32;95297.81;5055006;28;20040;-69
2023/05/12 09:19:33;;;;;;;2.35;2.20;;;;;;;13.84;82.50;95301.09;5054620;28;20052;-69
2023/05/12 09:21:59;;;;;;;1.98;1.88;;;;;;;13.86;79.90;95297.25;5050703;28;20386;-69
2023/05/12 09:24:38;;;;;;;2.00;1.90;;;;;;;13.92;80.64;95294.91;5045032;28;20053;-69
2023/05/12 09:27:04;;;;;;;3.65;1.98;;;;;;;13.90;79.95;95295.09;5048139;28;20071;-69
2023/05/12 09:29:33;;;;;;;1.77;1.67;;;;;;;14.01;79.76;95297.34;5045794;28;20063;-69
2023/05/12 09:32:01;;;;;;;1.88;1.77;;;;;;;13.95;78.81;95284.81;5049498;28;20031;-69
2023/05/12 09:34:35;;;;;;;1.60;1.50;;;;;;;14.04;74.55;95294.38;5063490;28;20570;-69
2023/05/12 09:37:04;;;;;;;1.73;1.63;;;;;;;14.17;73.48;95292.97;5049632;28;20039;-69
2023/05/12 09:39:30;;;;;;;1.90;1.80;;;;;;;14.35;73.63;95289.22;5048116;28;20041;-69
2023/05/12 09:41:55;;;;;;;1.75;1.65;;;;;;;14.47;73.26;95298.41;5052227;28;20021;-69
2023/05/12 09:44:22;;;;;;;3.08;2.55;;;;;;;14.47;73.67;95288.66;5051497;28;20274;-70
2023/05/12 09:46:48;;;;;;;4.50;2.20;;;;;;;14.65;74.08;95290.19;5048414;28;20070;-69
2023/05/12 09:49:22;;;;;;;1.98;1.80;;;;;;;14.86;72.08;95286.88;5049200;28;20028;-68
2023/05/12 09:51:52;;;;;;;2.00;1.80;;;;;;;14.89;71.38;95296.31;5069520;28;20024;-70
2023/05/12 09:54:28;;;;;;;1.90;1.80;;;;;;;14.73;71.52;95292.78;5054589;28;20029;-70
2023/05/12 09:57:00;;;;;;;2.53;2.30;;;;;;;14.83;72.33;95291.75;5053703;28;20025;-70
2023/05/12 09:59:31;;;;;;;2.25;2.15;;;;;;;14.97;69.95;95285.63;5050816;28;20484;-71
2023/05/12 10:02:01;;;;;;;1.95;1.85;;;;;;;15.01;68.80;95289.56;5044379;28;20020;-71
2023/05/12 10:04:31;;;;;;;2.17;1.85;;;;;;;14.94;70.85;95291.31;5053679;28;20423;-71
2023/05/12 10:06:57;;;;;;;1.60;1.50;;;;;;;15.15;70.82;95279.19;5055456;28;20033;-71
2023/05/12 10:09:27;;;;;;;3.80;1.98;;;;;;;15.24;68.70;95279.94;5054898;28;20485;-71
2023/05/12 10:11:55;;;;;;;1.80;1.70;;;;;;;15.31;70.17;95283.50;5053289;28;20021;-70
2023/05/12 10:14:21;;;;;;;1.35;1.35;;;;;;;15.54;69.47;95288.75;5049496;28;20612;-71
2023/05/12 10:16:48;;;;;;;1.63;1.40;;;;;;;15.89;67.20;95286.34;5061303;28;20043;-71
2023/05/12 10:19:14;;;;;;;1.75;1.60;;;;;;;16.08;65.38;95283.31;5055619;28;20016;-70
2023/05/12 10:21:45;;;;;;;1.40;1.30;;;;;;;16.59;62.48;95275.28;5055123;28;20425;-70
2023/05/12 10:24:13;;;;;;;1.35;1.30;;;;;;;17.54;61.06;95266.22;5057803;28;20024;-71
2023/05/12 10:26:39;;;;;;;1.25;1.20;;;;;;;18.15;55.51;95272.66;5054208;28;20099;-72
2023/05/12 10:29:05;;;;;;;1.50;1.40;;;;;;;17.72;58.61;95263.00;5056618;28;20024;-70
2023/05/12 10:31:31;;;;;;;1.73;1.30;;;;;;;17.32;60.58;95262.78;5070010;28;20481;-68
2023/05/12 10:33:58;;;;;;;1.40;1.40;;;;;;;17.08;61.04;95264.06;5049191;28;20036;-68
2023/05/12 10:36:24;;;;;;;1.73;1.63;;;;;;;17.24;59.70;95262.94;5054663;28;20047;-68
2023/05/12 10:38:50;;;;;;;1.77;1.40;;;;;;;17.02;61.23;95247.03;5054695;28;20045;-68
2023/05/12 10:41:16;;;;;;;1.60;1.50;;;;;;;16.79;62.82;95253.38;5048839;28;20487;-68
2023/05/12 10:43:48;;;;;;;1.42;1.33;;;;;;;16.75;61.52;95246.78;5048893;28;20041;-68
2023/05/12 10:46:19;;;;;;;1.80;1.33;;;;;;;16.95;62.00;95249.59;5052397;28;20366;-68
2023/05/12 10:49:14;;;;;;;1.65;1.55;;;;;;;17.25;60.99;95246.81;5053407;28;20575;-68
2023/05/12 10:51:42;;;;;;;2.88;1.20;;;;;;;17.29;61.16;95245.38;5054724;28;20043;-68
2023/05/12 10:54:09;;;;;;;4.45;1.77;;;;;;;17.37;60.82;95248.91;5061708;28;20028;-68
2023/05/12 10:56:41;;;;;;;1.50;1.40;;;;;;;17.38;60.96;95239.91;5060122;28;20027;-69
2023/05/12 10:59:07;;;;;;;1.92;1.83;;;;;;;17.09;58.88;95241.78;5062530;28;20495;-68
2023/05/12 11:01:33;;;;;;;1.15;1.13;;;;;;;16.87;59.41;95234.63;5051779;28;20401;-68
2023/05/12 11:04:09;;;;;;;1.85;1.73;;;;;;;16.86;59.22;95243.59;5057766;28;20029;-71
2023/05/12 11:06:35;;;;;;;1.55;1.45;;;;;;;17.11;59.79;95247.72;5058463;28;20017;-71
2023/05/12 11:09:01;;;;;;;3.35;3.05;;;;;;;17.05;57.50;95243.97;5059663;28;20052;-71
2023/05/12 11:11:27;;;;;;;4.72;4.00;;;;;;;17.04;58.53;95242.34;5059496;28;20039;-71
2023/05/12 11:13:53;;;;;;;3.30;2.95;;;;;;;17.36;60.02;95242.78;5055346;28;20047;-71
2023/05/12 11:16:19;;;;;;;12.70;10.40;;;;;;;17.23;57.58;95245.34;5058752;28;20150;-71
2023/05/12 11:18:45;;;;;;;5.43;4.88;;;;;;;17.17;57.84;95237.13;5054542;28;20040;-71
2023/05/12 11:21:11;;;;;;;1.67;1.58;;;;;;;17.60;57.65;95238.00;5058214;28;20017;-71
2023/05/12 11:23:36;;;;;;;2.38;2.15;;;;;;;17.85;57.65;95240.94;5055742;28;20080;-71
2023/05/12 11:26:03;;;;;;;3.83;2.78;;;;;;;17.88;58.18;95227.22;5063692;28;20029;-71
2023/05/12 11:28:38;;;;;;;2.80;2.28;;;;;;;17.74;56.56;95238.88;5053272;28;20048;-71